createdAt,value
2022-12-25T00:03:02.944Z,5.57
2022-12-25T00:07:08.583Z,4.70
2022-12-25T00:11:17.489Z,4.13
2022-12-25T00:15:23.092Z,4.97
2022-12-25T00:19:28.633Z,4.67
2022-12-25T00:23:35.434Z,4.40
2022-12-25T00:27:41.244Z,5.30
2022-12-25T00:31:47.402Z,4.40
2022-12-25T00:36:00.806Z,4.20
2022-12-25T00:40:07.603Z,4.87
2022-12-25T00:44:13.963Z,4.87
2022-12-25T00:48:19.588Z,5.50
2022-12-25T00:52:25.482Z,5.00
2022-12-25T00:56:31.348Z,4.50
2022-12-25T01:00:37.384Z,5.67
2022-12-25T01:04:43.272Z,7.33
2022-12-25T01:09:07.984Z,8.83
2022-12-25T01:13:13.752Z,9.37
2022-12-25T01:17:19.683Z,8.00
2022-12-25T01:21:25.946Z,6.57
2022-12-25T01:25:31.811Z,6.07
2022-12-25T01:29:39.490Z,5.80
2022-12-25T01:33:46.480Z,5.40
2022-12-25T01:37:53.025Z,5.57
2022-12-25T01:41:59.004Z,4.93
2022-12-25T01:46:05.469Z,4.83
2022-12-25T01:50:11.506Z,4.67
2022-12-25T01:54:48.709Z,5.47
2022-12-25T01:58:56.526Z,6.40
2022-12-25T02:03:03.672Z,4.27
2022-12-25T02:07:16.268Z,4.43
2022-12-25T02:11:40.921Z,5.40
2022-12-25T02:16:13.752Z,5.50
2022-12-25T02:20:53.528Z,4.83
2022-12-25T02:25:32.044Z,6.90
2022-12-25T02:29:49.829Z,7.33
2022-12-25T02:34:37.276Z,5.73
2022-12-25T02:39:04.932Z,4.60
2022-12-25T02:43:44.423Z,5.83
2022-12-25T02:48:09.907Z,6.30
2022-12-25T02:52:41.181Z,6.73
2022-12-25T02:57:07.867Z,6.73
2022-12-25T03:01:39.087Z,7.60
2022-12-25T03:06:04.703Z,7.10
2022-12-25T03:10:38.387Z,7.20
2022-12-25T03:15:04.577Z,6.40
2022-12-25T03:19:30.221Z,5.67
2022-12-25T03:23:59.288Z,6.60
2022-12-25T03:28:07.258Z,6.20
2022-12-25T03:32:42.420Z,6.60
2022-12-25T03:37:29.720Z,6.63
2022-12-25T03:42:01.542Z,6.77
2022-12-25T03:46:32.939Z,6.07
2022-12-25T03:51:06.882Z,6.93
2022-12-25T03:55:34.414Z,7.17
2022-12-25T03:59:58.297Z,9.80
2022-12-25T04:04:22.676Z,7.70
2022-12-25T04:08:46.675Z,7.40
2022-12-25T04:13:10.512Z,8.10
2022-12-25T04:17:34.809Z,8.03
2022-12-25T04:21:58.826Z,7.27
2022-12-25T04:26:22.902Z,8.67
2022-12-25T04:30:48.680Z,8.80
2022-12-25T04:35:12.911Z,9.90
2022-12-25T04:39:18.542Z,9.00
2022-12-25T04:43:25.244Z,10.97
2022-12-25T04:47:30.810Z,10.87
2022-12-25T04:51:37.114Z,14.50
2022-12-25T04:55:42.981Z,9.70
2022-12-25T04:59:48.398Z,11.37
2022-12-25T05:03:54.055Z,12.47
2022-12-25T05:07:59.569Z,10.30
2022-12-25T05:12:05.229Z,11.80
2022-12-25T05:16:18.116Z,10.60
2022-12-25T05:20:23.645Z,11.87
2022-12-25T05:24:29.167Z,14.10
2022-12-25T05:28:35.771Z,13.50
2022-12-25T05:32:41.551Z,14.20
2022-12-25T05:36:47.043Z,9.67
2022-12-25T05:40:52.606Z,15.27
2022-12-25T05:44:58.284Z,10.57
2022-12-25T05:49:05.622Z,12.80
2022-12-25T05:53:14.679Z,13.50
2022-12-25T05:57:20.131Z,13.00
2022-12-25T06:01:28.421Z,10.90
2022-12-25T06:05:34.101Z,9.87
2022-12-25T06:09:39.669Z,10.33
2022-12-25T06:13:50.061Z,13.87
2022-12-25T06:17:55.558Z,12.87
2022-12-25T06:22:01.040Z,10.17
2022-12-25T06:26:10.950Z,11.23
2022-12-25T06:30:16.650Z,8.60
2022-12-25T06:34:22.224Z,9.53
2022-12-25T06:38:28.556Z,10.00
2022-12-25T06:42:34.142Z,9.90
2022-12-25T06:46:39.818Z,9.60
2022-12-25T06:50:45.304Z,10.93
2022-12-25T06:54:52.058Z,12.13
2022-12-25T06:59:03.858Z,10.73
2022-12-25T07:03:09.628Z,12.23
2022-12-25T07:07:15.273Z,12.00
2022-12-25T07:11:21.938Z,10.53
2022-12-25T07:15:27.435Z,9.63
2022-12-25T07:19:33.033Z,9.77
2022-12-25T07:23:38.632Z,9.60
2022-12-25T07:27:44.088Z,9.70
2022-12-25T07:31:49.689Z,10.00
2022-12-25T07:35:55.269Z,10.07
2022-12-25T07:40:00.773Z,10.13
2022-12-25T07:44:06.318Z,9.87
2022-12-25T07:48:16.450Z,9.13
2022-12-25T07:52:22.742Z,9.47
2022-12-25T07:56:28.562Z,9.67
2022-12-25T08:00:34.108Z,8.73
2022-12-25T08:04:39.689Z,8.80
2022-12-25T08:08:45.781Z,10.70
2022-12-25T08:12:52.102Z,9.67
2022-12-25T08:16:57.710Z,9.37
2022-12-25T08:21:12.584Z,8.70
2022-12-25T08:25:18.043Z,8.30
2022-12-25T08:29:23.817Z,9.73
2022-12-25T08:33:29.229Z,9.30
2022-12-25T08:37:34.888Z,8.57
2022-12-25T08:41:40.563Z,10.00
2022-12-25T08:45:47.646Z,9.07
2022-12-25T08:49:53.164Z,9.50
2022-12-25T08:54:01.025Z,9.57
2022-12-25T08:58:07.502Z,9.03
2022-12-25T09:02:13.504Z,9.80
2022-12-25T09:06:19.248Z,8.50
2022-12-25T09:10:24.764Z,9.17
2022-12-25T09:14:31.499Z,9.13
2022-12-25T09:18:37.476Z,8.83
2022-12-25T09:22:43.028Z,7.57
2022-12-25T09:26:48.858Z,7.93
2022-12-25T09:30:55.114Z,7.40
2022-12-25T09:35:00.728Z,7.93
2022-12-25T09:39:06.158Z,8.30
2022-12-25T09:43:16.761Z,8.60
2022-12-25T09:47:31.083Z,8.10
2022-12-25T09:51:39.716Z,7.23
2022-12-25T09:56:14.616Z,8.27
2022-12-25T10:00:23.891Z,8.97
2022-12-25T10:05:02.672Z,8.47
2022-12-25T10:09:25.867Z,7.67
2022-12-25T10:14:20.922Z,8.43
2022-12-25T10:19:15.674Z,7.50
2022-12-25T10:23:37.392Z,8.77
2022-12-25T10:27:43.728Z,8.20
2022-12-25T10:31:54.082Z,7.80
2022-12-25T10:36:00.104Z,8.80
2022-12-25T10:40:23.372Z,6.73
2022-12-25T10:44:29.321Z,7.53
2022-12-25T10:48:34.853Z,8.63
2022-12-25T10:53:05.184Z,7.77
2022-12-25T10:57:10.658Z,9.20
2022-12-25T11:01:16.532Z,8.33
2022-12-25T11:05:34.123Z,8.63
2022-12-25T11:09:40.411Z,8.90
2022-12-25T11:13:59.441Z,9.40
2022-12-25T11:18:27.483Z,8.07
2022-12-25T11:22:37.588Z,8.17
2022-12-25T11:26:57.759Z,8.20
2022-12-25T11:31:13.095Z,8.60
2022-12-25T11:35:19.124Z,8.60
2022-12-25T11:39:29.439Z,8.43
2022-12-25T11:43:47.469Z,9.07
2022-12-25T11:48:18.708Z,8.37
2022-12-25T11:52:28.696Z,8.53
2022-12-25T11:56:34.409Z,7.67
2022-12-25T12:00:43.227Z,8.90
2022-12-25T12:05:03.285Z,8.13
2022-12-25T12:09:50.970Z,8.80
2022-12-25T12:14:34.406Z,8.00
2022-12-25T12:18:46.588Z,8.83
2022-12-25T12:22:55.949Z,8.10
2022-12-25T12:27:05.855Z,8.10
2022-12-25T12:35:19.862Z,7.05
2022-12-25T12:47:47.753Z,6.63
2022-12-25T12:52:30.434Z,6.73
2022-12-25T13:00:52.691Z,6.63
2022-12-25T13:05:34.989Z,6.40
2022-12-25T13:10:23.898Z,5.90
2022-12-25T13:14:29.909Z,6.10
2022-12-25T13:18:35.536Z,6.43
2022-12-25T13:22:41.131Z,5.77
2022-12-25T13:26:46.889Z,5.80
2022-12-25T13:30:52.473Z,5.77
2022-12-25T13:34:59.733Z,5.60
2022-12-25T13:43:13.862Z,5.57
2022-12-25T13:47:25.836Z,5.20
2022-12-25T13:51:31.459Z,5.33
2022-12-25T13:55:37.291Z,5.27
2022-12-25T13:59:44.623Z,5.50
2022-12-25T14:03:50.161Z,6.30
2022-12-25T14:07:59.485Z,5.77
2022-12-25T14:12:05.397Z,5.55
2022-12-25T14:16:11.814Z,6.20
2022-12-25T14:20:30.227Z,6.10
2022-12-25T14:28:41.098Z,6.90
2022-12-25T14:32:52.765Z,6.33
2022-12-25T14:36:58.268Z,6.33
2022-12-25T14:41:33.395Z,7.03
2022-12-25T14:45:39.277Z,6.73
2022-12-25T14:49:46.354Z,6.97
2022-12-25T14:53:56.057Z,7.90
2022-12-25T14:58:05.893Z,11.23
2022-12-25T15:02:18.270Z,7.70
2022-12-25T15:06:25.189Z,6.80
2022-12-25T15:14:56.748Z,6.43
2022-12-25T15:19:02.582Z,6.30
2022-12-25T15:23:19.662Z,8.47
2022-12-25T15:27:26.652Z,7.40
2022-12-25T15:31:36.153Z,7.93
2022-12-25T15:35:44.178Z,8.60
2022-12-25T15:39:49.749Z,7.70
2022-12-25T15:43:55.293Z,7.57
2022-12-25T15:48:00.971Z,7.70
2022-12-25T15:52:10.387Z,8.27
2022-12-25T15:56:16.506Z,7.63
2022-12-25T16:00:23.293Z,7.10
2022-12-25T16:04:31.510Z,7.57
2022-12-25T16:08:37.094Z,8.73
2022-12-25T16:12:43.142Z,8.57
2022-12-25T16:16:48.680Z,8.30
2022-12-25T16:20:55.073Z,8.47
2022-12-25T16:25:00.697Z,9.13
2022-12-25T16:29:07.958Z,10.03
2022-12-25T16:33:13.468Z,8.50
2022-12-25T16:37:19.111Z,9.73
2022-12-25T16:41:25.539Z,9.47
2022-12-25T16:45:31.131Z,12.10
2022-12-25T16:49:36.666Z,9.60
2022-12-25T16:53:42.904Z,9.23
2022-12-25T16:57:51.184Z,10.27
2022-12-25T17:01:56.911Z,10.37
2022-12-25T17:06:03.434Z,10.80
2022-12-25T17:10:10.289Z,11.27
2022-12-25T17:14:15.877Z,12.10
2022-12-25T17:18:22.184Z,10.90
2022-12-25T17:22:27.696Z,11.55
2022-12-25T17:26:33.589Z,11.00
2022-12-25T17:30:39.096Z,11.80
2022-12-25T17:34:44.568Z,11.85
2022-12-25T17:38:50.565Z,11.20
2022-12-25T17:42:56.316Z,11.97
2022-12-25T17:47:02.355Z,12.83
2022-12-25T17:51:12.391Z,11.13
2022-12-25T17:55:18.513Z,12.77
2022-12-25T17:59:28.671Z,12.57
2022-12-25T18:24:05.858Z,11.90
2022-12-25T18:28:13.079Z,11.87
2022-12-25T18:32:24.815Z,11.50
2022-12-25T18:36:34.041Z,11.47
2022-12-25T18:40:48.500Z,12.50
2022-12-25T18:44:54.609Z,12.17
2022-12-25T18:49:00.442Z,10.90
2022-12-25T18:53:07.561Z,11.47
2022-12-25T18:57:13.406Z,12.80
2022-12-25T19:01:22.801Z,11.37
